sensor_id;sensor_type;location;lat;lon;timestamp;temperature;humidity
7942;HTU21D;4016;50.758;7.150;2023-08-01T00:03:22;17.43;118.99
7942;HTU21D;4016;50.758;7.150;2023-08-01T00:08:22;17.45;118.99
7942;HTU21D;4016;50.758;7.150;2023-08-01T00:13:23;17.52;118.99
7942;HTU21D;4016;50.758;7.150;2023-08-01T00:18:23;17.49;118.99
7942;HTU21D;4016;50.758;7.150;2023-08-01T00:23:24;17.51;118.99
7942;HTU21D;4016;50.758;7.150;2023-08-01T00:28:24;17.52;118.99
7942;HTU21D;4016;50.758;7.150;2023-08-01T00:33:25;17.46;118.99
7942;HTU21D;4016;50.758;7.150;2023-08-01T00:38:25;17.51;118.99
7942;HTU21D;4016;50.758;7.150;2023-08-01T00:43:26;17.43;118.99
7942;HTU21D;4016;50.758;7.150;2023-08-01T00:48:27;17.54;118.99
7942;HTU21D;4016;50.758;7.150;2023-08-01T00:53:28;17.54;118.99
7942;HTU21D;4016;50.758;7.150;2023-08-01T00:58:29;17.51;118.99
7942;HTU21D;4016;50.758;7.150;2023-08-01T01:03:30;17.58;118.99
7942;HTU21D;4016;50.758;7.150;2023-08-01T01:08:31;17.51;118.99
7942;HTU21D;4016;50.758;7.150;2023-08-01T01:13:31;17.52;118.99
7942;HTU21D;4016;50.758;7.150;2023-08-01T01:18:32;17.51;118.99
7942;HTU21D;4016;50.758;7.150;2023-08-01T01:23:33;17.54;118.99
7942;HTU21D;4016;50.758;7.150;2023-08-01T01:28:34;17.53;118.99
7942;HTU21D;4016;50.758;7.150;2023-08-01T01:33:35;17.53;118.99
7942;HTU21D;4016;50.758;7.150;2023-08-01T01:38:36;17.55;118.99
7942;HTU21D;4016;50.758;7.150;2023-08-01T01:43:36;17.59;118.99
7942;HTU21D;4016;50.758;7.150;2023-08-01T01:48:38;17.72;118.99
7942;HTU21D;4016;50.758;7.150;2023-08-01T01:53:38;17.78;118.99
7942;HTU21D;4016;50.758;7.150;2023-08-01T01:58:38;17.77;118.99
7942;HTU21D;4016;50.758;7.150;2023-08-01T02:03:39;17.68;118.99
7942;HTU21D;4016;50.758;7.150;2023-08-01T02:08:39;17.75;118.99
7942;HTU21D;4016;50.758;7.150;2023-08-01T02:13:39;17.73;118.99
7942;HTU21D;4016;50.758;7.150;2023-08-01T02:18:40;17.84;118.99
7942;HTU21D;4016;50.758;7.150;2023-08-01T02:23:40;17.81;118.99
7942;HTU21D;4016;50.758;7.150;2023-08-01T02:28:41;17.69;118.99
7942;HTU21D;4016;50.758;7.150;2023-08-01T02:33:41;17.76;118.99
7942;HTU21D;4016;50.758;7.150;2023-08-01T02:38:41;17.78;118.99
7942;HTU21D;4016;50.758;7.150;2023-08-01T02:43:42;17.69;118.99
7942;HTU21D;4016;50.758;7.150;2023-08-01T02:48:42;17.66;118.99
7942;HTU21D;4016;50.758;7.150;2023-08-01T02:53:42;17.64;118.99
7942;HTU21D;4016;50.758;7.150;2023-08-01T02:58:43;17.63;118.99
7942;HTU21D;4016;50.758;7.150;2023-08-01T03:03:43;17.56;118.99
7942;HTU21D;4016;50.758;7.150;2023-08-01T03:08:43;17.41;118.99
7942;HTU21D;4016;50.758;7.150;2023-08-01T03:13:44;17.37;118.99
7942;HTU21D;4016;50.758;7.150;2023-08-01T03:18:44;17.23;118.99
7942;HTU21D;4016;50.758;7.150;2023-08-01T03:23:45;17.22;118.99
7942;HTU21D;4016;50.758;7.150;2023-08-01T03:28:45;17.09;118.99
7942;HTU21D;4016;50.758;7.150;2023-08-01T03:33:45;17.00;118.99
7942;HTU21D;4016;50.758;7.150;2023-08-01T03:38:46;16.89;118.99
7942;HTU21D;4016;50.758;7.150;2023-08-01T03:43:46;16.76;118.99
7942;HTU21D;4016;50.758;7.150;2023-08-01T03:48:46;16.82;118.99
7942;HTU21D;4016;50.758;7.150;2023-08-01T03:53:47;16.66;118.99
7942;HTU21D;4016;50.758;7.150;2023-08-01T03:58:48;16.62;118.99
7942;HTU21D;4016;50.758;7.150;2023-08-01T04:03:48;16.52;118.99
7942;HTU21D;4016;50.758;7.150;2023-08-01T04:08:48;16.52;118.99
7942;HTU21D;4016;50.758;7.150;2023-08-01T04:13:49;16.47;118.99
7942;HTU21D;4016;50.758;7.150;2023-08-01T04:18:49;16.39;118.99
7942;HTU21D;4016;50.758;7.150;2023-08-01T04:23:49;16.51;118.99
7942;HTU21D;4016;50.758;7.150;2023-08-01T04:28:50;16.39;118.99
7942;HTU21D;4016;50.758;7.150;2023-08-01T04:33:50;16.39;118.99
7942;HTU21D;4016;50.758;7.150;2023-08-01T04:38:50;16.46;118.99
7942;HTU21D;4016;50.758;7.150;2023-08-01T04:43:51;16.42;118.99
7942;HTU21D;4016;50.758;7.150;2023-08-01T04:48:51;16.39;118.99
7942;HTU21D;4016;50.758;7.150;2023-08-01T04:53:51;16.35;118.99
7942;HTU21D;4016;50.758;7.150;2023-08-01T04:58:52;16.40;118.99
7942;HTU21D;4016;50.758;7.150;2023-08-01T05:03:52;16.29;118.99
7942;HTU21D;4016;50.758;7.150;2023-08-01T05:08:53;16.21;118.99
7942;HTU21D;4016;50.758;7.150;2023-08-01T05:13:54;16.14;118.99
7942;HTU21D;4016;50.758;7.150;2023-08-01T05:18:54;16.06;118.99
7942;HTU21D;4016;50.758;7.150;2023-08-01T05:23:54;16.01;118.99
7942;HTU21D;4016;50.758;7.150;2023-08-01T05:28:55;15.93;118.99
7942;HTU21D;4016;50.758;7.150;2023-08-01T05:33:55;15.95;118.99
7942;HTU21D;4016;50.758;7.150;2023-08-01T05:38:56;15.96;118.99
7942;HTU21D;4016;50.758;7.150;2023-08-01T05:43:58;16.01;118.99
7942;HTU21D;4016;50.758;7.150;2023-08-01T05:48:58;16.01;118.99
7942;HTU21D;4016;50.758;7.150;2023-08-01T05:53:58;15.98;118.99
7942;HTU21D;4016;50.758;7.150;2023-08-01T05:58:59;16.01;118.99
7942;HTU21D;4016;50.758;7.150;2023-08-01T06:03:59;16.00;118.99
7942;HTU21D;4016;50.758;7.150;2023-08-01T06:09:00;16.18;118.99
7942;HTU21D;4016;50.758;7.150;2023-08-01T06:14:00;16.35;118.99
7942;HTU21D;4016;50.758;7.150;2023-08-01T06:19:01;16.60;118.99
7942;HTU21D;4016;50.758;7.150;2023-08-01T06:24:01;16.73;118.99
7942;HTU21D;4016;50.758;7.150;2023-08-01T06:29:02;16.90;118.99
7942;HTU21D;4016;50.758;7.150;2023-08-01T06:34:02;16.96;118.99
7942;HTU21D;4016;50.758;7.150;2023-08-01T06:39:04;17.01;118.99
7942;HTU21D;4016;50.758;7.150;2023-08-01T06:44:04;17.18;118.99
7942;HTU21D;4016;50.758;7.150;2023-08-01T06:49:04;17.17;118.99
7942;HTU21D;4016;50.758;7.150;2023-08-01T06:54:05;17.26;118.99
7942;HTU21D;4016;50.758;7.150;2023-08-01T06:59:07;17.44;118.99
7942;HTU21D;4016;50.758;7.150;2023-08-01T07:04:07;17.49;118.99
7942;HTU21D;4016;50.758;7.150;2023-08-01T07:09:07;17.65;118.99
7942;HTU21D;4016;50.758;7.150;2023-08-01T07:14:08;17.82;118.99
7942;HTU21D;4016;50.758;7.150;2023-08-01T07:19:08;18.08;118.99
7942;HTU21D;4016;50.758;7.150;2023-08-01T07:24:09;18.08;118.99
7942;HTU21D;4016;50.758;7.150;2023-08-01T07:29:09;18.17;118.99
7942;HTU21D;4016;50.758;7.150;2023-08-01T07:34:11;17.94;118.99
7942;HTU21D;4016;50.758;7.150;2023-08-01T07:39:11;18.00;118.99
7942;HTU21D;4016;50.758;7.150;2023-08-01T07:44:12;17.90;118.99
7942;HTU21D;4016;50.758;7.150;2023-08-01T07:49:12;18.18;118.99
7942;HTU21D;4016;50.758;7.150;2023-08-01T07:54:13;18.79;118.99
7942;HTU21D;4016;50.758;7.150;2023-08-01T07:59:13;19.06;117.90
7942;HTU21D;4016;50.758;7.150;2023-08-01T08:04:13;19.18;111.89
7942;HTU21D;4016;50.758;7.150;2023-08-01T08:09:14;19.80;112.29
7942;HTU21D;4016;50.758;7.150;2023-08-01T08:14:14;19.85;110.28
7942;HTU21D;4016;50.758;7.150;2023-08-01T08:19:15;19.79;114.77
7942;HTU21D;4016;50.758;7.150;2023-08-01T08:24:16;19.58;110.35
7942;HTU21D;4016;50.758;7.150;2023-08-01T08:29:16;19.68;108.24
7942;HTU21D;4016;50.758;7.150;2023-08-01T08:34:16;19.88;111.84
7942;HTU21D;4016;50.758;7.150;2023-08-01T08:39:17;20.45;104.36
7942;HTU21D;4016;50.758;7.150;2023-08-01T08:44:19;20.06;102.76
7942;HTU21D;4016;50.758;7.150;2023-08-01T08:49:25;19.92;102.06
7942;HTU21D;4016;50.758;7.150;2023-08-01T08:54:27;19.89;101.77
7942;HTU21D;4016;50.758;7.150;2023-08-01T08:59:29;19.69;103.34
7942;HTU21D;4016;50.758;7.150;2023-08-01T09:04:33;19.73;102.49
7942;HTU21D;4016;50.758;7.150;2023-08-01T09:09:34;20.05;101.10
7942;HTU21D;4016;50.758;7.150;2023-08-01T09:14:35;20.62;100.55
7942;HTU21D;4016;50.758;7.150;2023-08-01T09:19:35;21.08;99.19
7942;HTU21D;4016;50.758;7.150;2023-08-01T09:24:35;21.33;92.52
7942;HTU21D;4016;50.758;7.150;2023-08-01T09:29:36;21.19;90.59
7942;HTU21D;4016;50.758;7.150;2023-08-01T09:34:36;20.74;94.19
7942;HTU21D;4016;50.758;7.150;2023-08-01T09:39:37;21.31;92.15
7942;HTU21D;4016;50.758;7.150;2023-08-01T09:44:37;21.43;92.62
7942;HTU21D;4016;50.758;7.150;2023-08-01T09:49:49;21.11;92.69
7942;HTU21D;4016;50.758;7.150;2023-08-01T09:54:50;21.19;90.46
7942;HTU21D;4016;50.758;7.150;2023-08-01T09:59:50;21.24;91.67
7942;HTU21D;4016;50.758;7.150;2023-08-01T10:04:52;21.45;91.47
7942;HTU21D;4016;50.758;7.150;2023-08-01T10:09:58;21.70;88.21
7942;HTU21D;4016;50.758;7.150;2023-08-01T10:14:59;21.61;87.51
7942;HTU21D;4016;50.758;7.150;2023-08-01T10:20:00;21.80;90.61
7942;HTU21D;4016;50.758;7.150;2023-08-01T10:25:01;21.96;85.47
7942;HTU21D;4016;50.758;7.150;2023-08-01T10:30:03;22.03;87.69
7942;HTU21D;4016;50.758;7.150;2023-08-01T10:35:05;22.29;87.38
7942;HTU21D;4016;50.758;7.150;2023-08-01T10:40:07;22.42;86.12
7942;HTU21D;4016;50.758;7.150;2023-08-01T10:45:19;22.38;85.39
7942;HTU21D;4016;50.758;7.150;2023-08-01T10:50:20;21.61;92.13
7942;HTU21D;4016;50.758;7.150;2023-08-01T10:55:21;20.37;110.12
7942;HTU21D;4016;50.758;7.150;2023-08-01T11:00:22;20.39;114.30
7942;HTU21D;4016;50.758;7.150;2023-08-01T11:05:22;20.80;115.32
7942;HTU21D;4016;50.758;7.150;2023-08-01T11:10:31;21.06;107.90
7942;HTU21D;4016;50.758;7.150;2023-08-01T11:15:32;21.16;108.62
7942;HTU21D;4016;50.758;7.150;2023-08-01T11:20:38;21.79;108.85
7942;HTU21D;4016;50.758;7.150;2023-08-01T11:25:41;22.22;100.83
7942;HTU21D;4016;50.758;7.150;2023-08-01T11:30:42;22.21;92.48
7942;HTU21D;4016;50.758;7.150;2023-08-01T11:35:43;22.51;92.82
7942;HTU21D;4016;50.758;7.150;2023-08-01T11:40:43;22.25;85.97
7942;HTU21D;4016;50.758;7.150;2023-08-01T11:45:55;21.68;89.04
7942;HTU21D;4016;50.758;7.150;2023-08-01T11:50:59;21.79;85.95
7942;HTU21D;4016;50.758;7.150;2023-08-01T11:56:00;21.55;85.39
7942;HTU21D;4016;50.758;7.150;2023-08-01T12:01:08;21.40;87.83
7942;HTU21D;4016;50.758;7.150;2023-08-01T12:06:09;20.98;91.85
7942;HTU21D;4016;50.758;7.150;2023-08-01T12:11:25;20.92;95.57
7942;HTU21D;4016;50.758;7.150;2023-08-01T12:16:26;21.23;99.55
7942;HTU21D;4016;50.758;7.150;2023-08-01T12:21:27;21.84;95.02
7942;HTU21D;4016;50.758;7.150;2023-08-01T12:26:28;22.14;89.69
7942;HTU21D;4016;50.758;7.150;2023-08-01T12:31:29;22.43;88.73
7942;HTU21D;4016;50.758;7.150;2023-08-01T12:36:29;22.82;86.44
7942;HTU21D;4016;50.758;7.150;2023-08-01T12:41:30;22.43;78.52
7942;HTU21D;4016;50.758;7.150;2023-08-01T12:46:30;21.80;78.47
7942;HTU21D;4016;50.758;7.150;2023-08-01T12:51:31;21.45;88.47
7942;HTU21D;4016;50.758;7.150;2023-08-01T12:56:31;21.58;91.84
7942;HTU21D;4016;50.758;7.150;2023-08-01T13:01:32;21.27;86.64
7942;HTU21D;4016;50.758;7.150;2023-08-01T13:06:32;21.24;82.30
7942;HTU21D;4016;50.758;7.150;2023-08-01T13:11:32;21.14;80.08
7942;HTU21D;4016;50.758;7.150;2023-08-01T13:16:33;21.34;82.01
7942;HTU21D;4016;50.758;7.150;2023-08-01T13:21:34;21.76;79.44
7942;HTU21D;4016;50.758;7.150;2023-08-01T13:26:34;22.28;76.50
7942;HTU21D;4016;50.758;7.150;2023-08-01T13:31:34;22.58;73.15
7942;HTU21D;4016;50.758;7.150;2023-08-01T13:36:35;23.10;75.18
7942;HTU21D;4016;50.758;7.150;2023-08-01T13:41:35;23.26;65.30
7942;HTU21D;4016;50.758;7.150;2023-08-01T13:46:36;23.23;66.47
7942;HTU21D;4016;50.758;7.150;2023-08-01T13:51:36;22.83;65.42
7942;HTU21D;4016;50.758;7.150;2023-08-01T13:56:38;22.67;68.11
7942;HTU21D;4016;50.758;7.150;2023-08-01T14:01:38;22.81;64.28
7942;HTU21D;4016;50.758;7.150;2023-08-01T14:06:39;22.92;62.34
7942;HTU21D;4016;50.758;7.150;2023-08-01T14:11:40;23.12;60.67
7942;HTU21D;4016;50.758;7.150;2023-08-01T14:16:40;22.82;63.36
7942;HTU21D;4016;50.758;7.150;2023-08-01T14:21:41;22.66;63.12
7942;HTU21D;4016;50.758;7.150;2023-08-01T14:26:41;21.96;81.43
7942;HTU21D;4016;50.758;7.150;2023-08-01T14:31:41;21.02;100.46
7942;HTU21D;4016;50.758;7.150;2023-08-01T14:36:42;20.78;104.28
7942;HTU21D;4016;50.758;7.150;2023-08-01T14:41:42;20.73;106.65
7942;HTU21D;4016;50.758;7.150;2023-08-01T14:46:42;20.69;101.51
7942;HTU21D;4016;50.758;7.150;2023-08-01T14:51:43;20.44;102.96
7942;HTU21D;4016;50.758;7.150;2023-08-01T14:56:43;20.61;101.66
7942;HTU21D;4016;50.758;7.150;2023-08-01T15:01:44;20.89;99.14
7942;HTU21D;4016;50.758;7.150;2023-08-01T15:06:44;21.44;97.78
7942;HTU21D;4016;50.758;7.150;2023-08-01T15:11:45;21.93;97.42
7942;HTU21D;4016;50.758;7.150;2023-08-01T15:16:45;22.26;79.84
7942;HTU21D;4016;50.758;7.150;2023-08-01T15:21:45;22.25;86.84
7942;HTU21D;4016;50.758;7.150;2023-08-01T15:26:46;21.88;79.08
7942;HTU21D;4016;50.758;7.150;2023-08-01T15:31:46;21.57;81.49
7942;HTU21D;4016;50.758;7.150;2023-08-01T15:36:47;21.14;85.90
7942;HTU21D;4016;50.758;7.150;2023-08-01T15:41:48;20.93;90.78
7942;HTU21D;4016;50.758;7.150;2023-08-01T15:46:48;20.51;92.98
7942;HTU21D;4016;50.758;7.150;2023-08-01T15:51:48;19.83;95.57
7942;HTU21D;4016;50.758;7.150;2023-08-01T15:56:49;19.59;97.71
7942;HTU21D;4016;50.758;7.150;2023-08-01T16:01:50;19.20;101.64
7942;HTU21D;4016;50.758;7.150;2023-08-01T16:06:50;19.01;106.08
7942;HTU21D;4016;50.758;7.150;2023-08-01T16:11:50;18.87;107.79
7942;HTU21D;4016;50.758;7.150;2023-08-01T16:16:51;18.83;106.34
7942;HTU21D;4016;50.758;7.150;2023-08-01T16:21:51;18.78;105.55
7942;HTU21D;4016;50.758;7.150;2023-08-01T16:26:51;18.68;106.22
7942;HTU21D;4016;50.758;7.150;2023-08-01T16:31:52;18.64;103.57
7942;HTU21D;4016;50.758;7.150;2023-08-01T16:36:52;18.57;105.85
7942;HTU21D;4016;50.758;7.150;2023-08-01T16:41:53;18.63;105.27
7942;HTU21D;4016;50.758;7.150;2023-08-01T16:46:54;18.58;106.53
7942;HTU21D;4016;50.758;7.150;2023-08-01T16:51:55;18.70;106.15
7942;HTU21D;4016;50.758;7.150;2023-08-01T16:56:55;18.82;104.54
7942;HTU21D;4016;50.758;7.150;2023-08-01T17:01:56;19.01;104.34
7942;HTU21D;4016;50.758;7.150;2023-08-01T17:06:56;19.08;103.35
7942;HTU21D;4016;50.758;7.150;2023-08-01T17:11:57;19.15;104.15
7942;HTU21D;4016;50.758;7.150;2023-08-01T17:16:57;18.96;106.36
7942;HTU21D;4016;50.758;7.150;2023-08-01T17:21:57;19.05;105.56
7942;HTU21D;4016;50.758;7.150;2023-08-01T17:26:58;18.84;107.13
7942;HTU21D;4016;50.758;7.150;2023-08-01T17:31:58;18.92;108.80
7942;HTU21D;4016;50.758;7.150;2023-08-01T17:36:59;18.66;112.96
7942;HTU21D;4016;50.758;7.150;2023-08-01T17:41:59;18.42;115.57
7942;HTU21D;4016;50.758;7.150;2023-08-01T17:47:00;18.41;115.39
7942;HTU21D;4016;50.758;7.150;2023-08-01T17:52:01;18.32;116.84
7942;HTU21D;4016;50.758;7.150;2023-08-01T17:57:01;18.18;118.96
7942;HTU21D;4016;50.758;7.150;2023-08-01T18:02:02;17.94;115.63
7942;HTU21D;4016;50.758;7.150;2023-08-01T18:07:02;17.77;115.93
7942;HTU21D;4016;50.758;7.150;2023-08-01T18:12:03;17.50;117.82
7942;HTU21D;4016;50.758;7.150;2023-08-01T18:17:05;17.20;118.99
7942;HTU21D;4016;50.758;7.150;2023-08-01T18:22:06;17.18;118.73
7942;HTU21D;4016;50.758;7.150;2023-08-01T18:27:06;17.29;117.28
7942;HTU21D;4016;50.758;7.150;2023-08-01T18:32:07;17.20;117.34
7942;HTU21D;4016;50.758;7.150;2023-08-01T18:37:07;17.19;116.60
7942;HTU21D;4016;50.758;7.150;2023-08-01T18:42:08;17.36;114.80
7942;HTU21D;4016;50.758;7.150;2023-08-01T18:47:08;17.29;116.97
7942;HTU21D;4016;50.758;7.150;2023-08-01T18:52:08;17.25;118.04
7942;HTU21D;4016;50.758;7.150;2023-08-01T18:57:09;17.30;117.62
7942;HTU21D;4016;50.758;7.150;2023-08-01T19:02:09;17.36;118.33
7942;HTU21D;4016;50.758;7.150;2023-08-01T19:07:10;17.35;118.29
7942;HTU21D;4016;50.758;7.150;2023-08-01T19:12:10;17.44;117.05
7942;HTU21D;4016;50.758;7.150;2023-08-01T19:17:11;17.35;118.99
7942;HTU21D;4016;50.758;7.150;2023-08-01T19:22:11;17.29;118.99
7942;HTU21D;4016;50.758;7.150;2023-08-01T19:27:12;17.23;118.99
7942;HTU21D;4016;50.758;7.150;2023-08-01T19:32:12;17.24;118.99
7942;HTU21D;4016;50.758;7.150;2023-08-01T19:37:13;17.20;118.99
7942;HTU21D;4016;50.758;7.150;2023-08-01T19:42:13;17.16;118.99
7942;HTU21D;4016;50.758;7.150;2023-08-01T19:47:13;17.25;118.99
7942;HTU21D;4016;50.758;7.150;2023-08-01T19:52:14;17.09;118.99
7942;HTU21D;4016;50.758;7.150;2023-08-01T19:57:14;17.09;118.99
7942;HTU21D;4016;50.758;7.150;2023-08-01T20:02:15;17.11;118.99
7942;HTU21D;4016;50.758;7.150;2023-08-01T20:07:15;16.96;118.99
7942;HTU21D;4016;50.758;7.150;2023-08-01T20:12:16;16.92;118.99
7942;HTU21D;4016;50.758;7.150;2023-08-01T20:17:16;16.82;118.99
7942;HTU21D;4016;50.758;7.150;2023-08-01T20:22:16;16.76;118.99
7942;HTU21D;4016;50.758;7.150;2023-08-01T20:27:17;16.71;118.99
7942;HTU21D;4016;50.758;7.150;2023-08-01T20:32:17;16.70;118.99
7942;HTU21D;4016;50.758;7.150;2023-08-01T20:37:18;16.69;118.99
7942;HTU21D;4016;50.758;7.150;2023-08-01T20:42:18;16.64;118.99
7942;HTU21D;4016;50.758;7.150;2023-08-01T20:47:19;16.62;118.99
7942;HTU21D;4016;50.758;7.150;2023-08-01T20:52:19;16.61;118.99
7942;HTU21D;4016;50.758;7.150;2023-08-01T20:57:20;16.51;118.99
7942;HTU21D;4016;50.758;7.150;2023-08-01T21:02:20;16.48;118.99
7942;HTU21D;4016;50.758;7.150;2023-08-01T21:07:21;16.86;118.99
7942;HTU21D;4016;50.758;7.150;2023-08-01T21:12:21;16.45;118.99
7942;HTU21D;4016;50.758;7.150;2023-08-01T21:17:22;16.39;118.99
7942;HTU21D;4016;50.758;7.150;2023-08-01T21:22:22;16.32;118.99
7942;HTU21D;4016;50.758;7.150;2023-08-01T21:27:23;16.35;118.99
7942;HTU21D;4016;50.758;7.150;2023-08-01T21:32:23;16.29;118.99
7942;HTU21D;4016;50.758;7.150;2023-08-01T21:37:23;16.27;118.99
7942;HTU21D;4016;50.758;7.150;2023-08-01T21:42:24;16.26;118.99
7942;HTU21D;4016;50.758;7.150;2023-08-01T21:47:24;16.36;118.99
7942;HTU21D;4016;50.758;7.150;2023-08-01T21:52:25;16.35;118.99
7942;HTU21D;4016;50.758;7.150;2023-08-01T21:57:25;16.35;118.99
7942;HTU21D;4016;50.758;7.150;2023-08-01T22:02:25;16.37;118.99
7942;HTU21D;4016;50.758;7.150;2023-08-01T22:07:26;16.46;118.99
7942;HTU21D;4016;50.758;7.150;2023-08-01T22:12:27;16.47;118.99
7942;HTU21D;4016;50.758;7.150;2023-08-01T22:17:27;16.40;118.99
7942;HTU21D;4016;50.758;7.150;2023-08-01T22:22:27;16.49;118.99
7942;HTU21D;4016;50.758;7.150;2023-08-01T22:27:28;16.58;118.99
7942;HTU21D;4016;50.758;7.150;2023-08-01T22:32:28;16.59;118.99
7942;HTU21D;4016;50.758;7.150;2023-08-01T22:37:29;16.65;118.99
7942;HTU21D;4016;50.758;7.150;2023-08-01T22:42:29;16.69;118.99
7942;HTU21D;4016;50.758;7.150;2023-08-01T22:47:29;16.56;118.99
7942;HTU21D;4016;50.758;7.150;2023-08-01T22:52:31;16.48;118.99
7942;HTU21D;4016;50.758;7.150;2023-08-01T22:57:31;16.50;118.99
7942;HTU21D;4016;50.758;7.150;2023-08-01T23:02:32;16.49;118.99
7942;HTU21D;4016;50.758;7.150;2023-08-01T23:07:32;16.46;118.99
7942;HTU21D;4016;50.758;7.150;2023-08-01T23:12:33;16.42;118.99
7942;HTU21D;4016;50.758;7.150;2023-08-01T23:17:34;16.37;118.99
7942;HTU21D;4016;50.758;7.150;2023-08-01T23:22:35;16.33;118.99
7942;HTU21D;4016;50.758;7.150;2023-08-01T23:27:35;16.32;118.99
7942;HTU21D;4016;50.758;7.150;2023-08-01T23:32:36;16.30;118.99
7942;HTU21D;4016;50.758;7.150;2023-08-01T23:37:36;16.22;118.99
7942;HTU21D;4016;50.758;7.150;2023-08-01T23:42:36;16.13;118.99
7942;HTU21D;4016;50.758;7.150;2023-08-01T23:47:37;16.07;118.99
7942;HTU21D;4016;50.758;7.150;2023-08-01T23:52:37;16.03;118.99
7942;HTU21D;4016;50.758;7.150;2023-08-01T23:57:38;15.91;118.99
